Alberta, Alabama
Current Conditions -  °F | °C
As of 3:35 AM on Monday 24 Nov 2014 (Local Time) from KSEM Reporting Station
Scattered Clouds Scattered Clouds  
Wind Chill: 66°   Ceiling: Unl
Heat Index: 66°   Visibility: 10mi
Dew Point: 63°   Wind: 9mph
Humidity: 88%   Direction: 200°SSW
Pressure: 29.72"   Gusts: NA
Location:  32.23°N, 87.41°W
Report Text: KSEM 240935Z AUTO 20008KT 10SM SCT021 19/17 A2972 RMK AO2
Loading
Personal Weather Stations






























Interactive Weather Map New forecast layout! Learn more

10-Day Weather Forecast

Advertisements
Track Severe Weather on mobile